Time;durP1;ratioP1;P1;durP2;ratioP2;P2;SDS_P1;SDS_P2;PMS_P1;PMS_P2;Temp;Humidity;BMP_temperature;BMP_pressure;BME280_temperature;BME280_humidity;BME280_pressure;Samples;Min_cycle;Max_cycle;Signal;HPM_P1;HPM_P2
2021/08/15 00:01:24;;;;;;;10.82;7.07;;;20.90;99.90;;;;;;5046418;28;20031;-81
2021/08/15 00:03:50;;;;;;;12.85;7.68;;;;;;;;;;5041766;28;20031;-82
2021/08/15 00:06:17;;;;;;;12.48;8.48;;;20.90;99.90;;;;;;5041768;28;20021;-81
2021/08/15 00:08:43;;;;;;;11.85;7.30;;;20.90;99.90;;;;;;5040666;28;20186;-83
2021/08/15 00:11:09;;;;;;;10.70;6.95;;;;;;;;;;5051071;28;20033;-82
2021/08/15 00:13:34;;;;;;;10.95;7.68;;;21.00;99.90;;;;;;5050025;28;20029;-82
2021/08/15 00:16:00;;;;;;;11.50;7.13;;;20.80;99.90;;;;;;5054835;28;20548;-85
2021/08/15 00:18:26;;;;;;;10.80;7.15;;;20.80;99.90;;;;;;5048337;28;20426;-79
2021/08/15 00:20:52;;;;;;;13.95;7.22;;;;;;;;;;5049761;28;20077;-83
2021/08/15 00:23:18;;;;;;;11.23;7.03;;;;;;;;;;5044536;28;20021;-82
2021/08/15 00:25:43;;;;;;;10.55;6.63;;;20.80;99.90;;;;;;5039241;28;20059;-83
2021/08/15 00:28:09;;;;;;;10.05;7.35;;;20.80;99.90;;;;;;5038880;28;20029;-81
2021/08/15 00:30:34;;;;;;;12.48;7.40;;;20.80;99.90;;;;;;5047238;28;20490;-81
2021/08/15 00:33:01;;;;;;;12.15;7.00;;;20.90;99.90;;;;;;5048452;28;20036;-83
2021/08/15 00:35:26;;;;;;;10.77;7.13;;;20.90;99.90;;;;;;5038914;28;20025;-81
2021/08/15 00:37:52;;;;;;;13.52;7.10;;;;;;;;;;5049027;28;20021;-80
2021/08/15 00:40:18;;;;;;;12.18;7.43;;;21.00;99.90;;;;;;5053724;28;20029;-83
2021/08/15 00:42:44;;;;;;;10.82;6.75;;;;;;;;;;5048340;28;20033;-81
2021/08/15 00:45:10;;;;;;;13.35;7.03;;;21.00;99.90;;;;;;5048886;28;20483;-80
2021/08/15 00:47:36;;;;;;;7.82;5.85;;;21.00;99.90;;;;;;5046847;28;20033;-81
2021/08/15 00:50:03;;;;;;;10.15;6.50;;;21.00;99.90;;;;;;5044177;28;20483;-81
2021/08/15 00:52:29;;;;;;;11.38;7.15;;;21.00;99.90;;;;;;5044588;28;20029;-82
2021/08/15 00:55:00;;;;;;;9.27;6.35;;;20.60;99.90;;;;;;5043265;28;20035;-82
2021/08/15 00:57:27;;;;;;;10.05;6.60;;;;;;;;;;5038314;28;20026;-79
2021/08/15 00:59:52;;;;;;;12.18;6.50;;;21.00;99.90;;;;;;5032719;28;20017;-81
2021/08/15 01:02:18;;;;;;;10.63;6.85;;;21.00;99.90;;;;;;5038156;28;20570;-83
2021/08/15 01:04:44;;;;;;;12.85;7.18;;;;;;;;;;5036114;28;20573;-82
2021/08/15 01:07:10;;;;;;;10.55;6.65;;;20.90;99.90;;;;;;5054204;28;20017;-81
2021/08/15 01:09:39;;;;;;;8.82;6.68;;;20.90;99.90;;;;;;5048648;28;20475;-79
2021/08/15 01:12:08;;;;;;;10.30;6.68;;;20.90;99.90;;;;;;5057359;28;20901;-80
2021/08/15 01:14:34;;;;;;;10.50;6.88;;;20.90;99.90;;;;;;5044858;28;20049;-80
2021/08/15 01:17:00;;;;;;;10.75;6.75;;;;;;;;;;5043047;28;20488;-81
2021/08/15 01:19:30;;;;;;;10.65;7.00;;;20.80;99.90;;;;;;5043172;28;20542;-81
2021/08/15 01:21:57;;;;;;;10.57;6.85;;;20.80;99.90;;;;;;5037578;28;20029;-82
2021/08/15 01:24:24;;;;;;;9.75;6.70;;;20.80;99.90;;;;;;5038765;28;20030;-82
2021/08/15 01:26:51;;;;;;;14.90;8.15;;;20.80;99.90;;;;;;5038582;28;20025;-81
2021/08/15 01:29:20;;;;;;;10.60;6.57;;;22.20;99.90;;;;;;5038587;28;20049;-82
2021/08/15 01:31:46;;;;;;;10.52;6.60;;;;;;;;;;5038070;28;20021;-81
2021/08/15 01:34:12;;;;;;;11.75;7.57;;;;;;;;;;5038419;28;20034;-84
2021/08/15 01:36:41;;;;;;;12.05;7.00;;;20.70;99.90;;;;;;5044216;28;20537;-82
2021/08/15 01:39:06;;;;;;;11.60;6.53;;;20.70;99.90;;;;;;5037849;28;20557;-81
2021/08/15 01:41:32;;;;;;;10.68;6.80;;;20.70;99.90;;;;;;5037222;28;20033;-80
2021/08/15 01:44:00;;;;;;;9.30;6.40;;;20.70;99.90;;;;;;5035998;28;20030;-78
2021/08/15 01:46:31;;;;;;;11.07;7.13;;;20.60;99.90;;;;;;5035650;28;20075;-80
2021/08/15 01:48:58;;;;;;;11.93;6.70;;;20.50;99.90;;;;;;5036357;28;20029;-80
2021/08/15 01:51:24;;;;;;;9.55;6.78;;;20.60;99.90;;;;;;5037136;28;20044;-80
2021/08/15 01:53:52;;;;;;;9.93;6.70;;;20.50;99.90;;;;;;5044129;28;20072;-81
2021/08/15 01:56:19;;;;;;;10.48;6.63;;;;;;;;;;5025903;28;20109;-82
2021/08/15 01:58:45;;;;;;;9.32;6.50;;;;;;;;;;5048879;28;20022;-79
2021/08/15 02:01:15;;;;;;;10.57;6.38;;;20.50;99.90;;;;;;5051273;28;20040;-81
2021/08/15 02:03:40;;;;;;;;;;;20.40;99.90;;;;;;5036203;28;20026;-81
2021/08/15 02:06:06;;;;;;;9.68;6.82;;;20.30;99.90;;;;;;5035660;28;19913;-80
2021/08/15 02:08:32;;;;;;;9.02;5.90;;;;;;;;;;5035577;28;20032;-81
2021/08/15 02:10:57;;;;;;;9.57;6.63;;;20.30;99.90;;;;;;5025250;28;20026;-80
2021/08/15 02:13:23;;;;;;;10.35;6.25;;;20.30;99.90;;;;;;5033893;28;20029;-81
2021/08/15 02:15:49;;;;;;;10.60;6.32;;;;;;;;;;5037844;28;20033;-83
2021/08/15 02:18:15;;;;;;;12.18;6.60;;;;;;;;;;5046907;28;20040;-81
2021/08/15 02:20:41;;;;;;;10.13;6.30;;;20.30;99.90;;;;;;5055056;28;20079;-83
2021/08/15 02:23:06;;;;;;;10.55;6.65;;;20.30;99.90;;;;;;5044265;28;20018;-82
2021/08/15 02:25:32;;;;;;;8.35;6.03;;;;;;;;;;5038286;28;20036;-82
2021/08/15 02:27:58;;;;;;;11.05;6.43;;;20.20;99.90;;;;;;5035794;28;20029;-83
2021/08/15 02:30:25;;;;;;;9.68;6.28;;;;;;;;;;5055710;28;20159;-80
2021/08/15 02:32:52;;;;;;;9.65;5.75;;;20.10;99.90;;;;;;5035639;28;20021;-81
2021/08/15 02:35:18;;;;;;;8.50;6.25;;;20.10;99.90;;;;;;5041877;28;20029;-80
2021/08/15 02:37:46;;;;;;;9.80;5.90;;;20.00;99.90;;;;;;5041545;28;20025;-82
2021/08/15 02:40:13;;;;;;;11.00;5.70;;;20.00;99.90;;;;;;5039285;28;20034;-82
2021/08/15 02:42:41;;;;;;;9.02;5.60;;;19.90;99.90;;;;;;5041780;28;20033;-83
2021/08/15 02:45:09;;;;;;;10.52;5.93;;;20.00;99.90;;;;;;5042633;28;20029;-80
2021/08/15 02:47:35;;;;;;;8.55;5.90;;;;;;;;;;5040867;28;20061;-85
2021/08/15 02:50:01;;;;;;;8.93;5.93;;;;;;;;;;5044569;28;20028;-82
2021/08/15 02:52:27;;;;;;;9.30;5.95;;;19.90;99.90;;;;;;5056767;28;20071;-82
2021/08/15 02:54:52;;;;;;;9.30;5.78;;;20.10;99.90;;;;;;5048746;28;20034;-81
2021/08/15 02:57:18;;;;;;;9.32;5.70;;;21.30;99.90;;;;;;5045258;28;20025;-81
2021/08/15 02:59:44;;;;;;;9.52;6.13;;;;;;;;;;5045017;28;20037;-84
2021/08/15 03:02:14;;;;;;;10.35;6.43;;;19.80;99.90;;;;;;5044971;28;20029;-83
2021/08/15 03:04:40;;;;;;;9.75;5.75;;;19.80;99.90;;;;;;5050405;28;20020;-83
2021/08/15 03:07:06;;;;;;;8.20;5.72;;;19.70;99.90;;;;;;5044654;28;20030;-83
2021/08/15 03:09:32;;;;;;;8.63;5.53;;;19.70;99.90;;;;;;5045911;28;20075;-82
2021/08/15 03:11:57;;;;;;;8.63;5.68;;;19.80;99.90;;;;;;5047820;28;20119;-84
2021/08/15 03:14:23;;;;;;;8.43;5.35;;;19.70;99.90;;;;;;5042121;28;20025;-83
2021/08/15 03:16:49;;;;;;;10.65;6.05;;;19.70;99.90;;;;;;5053556;28;20033;-83
2021/08/15 03:19:15;;;;;;;10.98;6.20;;;19.60;99.90;;;;;;5045179;28;20071;-84
2021/08/15 03:21:40;;;;;;;12.30;6.88;;;22.30;99.90;;;;;;5047994;28;20089;-82
2021/08/15 03:24:06;;;;;;;7.43;5.35;;;19.50;99.90;;;;;;5042236;28;20030;-80
2021/08/15 03:26:32;;;;;;;7.45;5.20;;;19.50;99.90;;;;;;5043861;28;20159;-84
2021/08/15 03:28:59;;;;;;;9.52;5.25;;;19.50;99.90;;;;;;5043429;28;20025;-82
2021/08/15 03:31:25;;;;;;;7.47;5.20;;;19.50;99.90;;;;;;5047037;28;20514;-83
2021/08/15 03:33:51;;;;;;;8.95;5.70;;;19.40;99.90;;;;;;5043011;28;20022;-81
2021/08/15 03:36:17;;;;;;;8.50;5.38;;;19.40;99.90;;;;;;5042097;28;20410;-83
2021/08/15 03:38:43;;;;;;;8.10;5.20;;;19.30;99.90;;;;;;5043245;28;20037;-83
2021/08/15 03:41:11;;;;;;;10.30;5.20;;;19.40;99.90;;;;;;5043214;28;20029;-83
2021/08/15 03:43:37;;;;;;;11.25;5.50;;;19.30;99.90;;;;;;5041029;28;20021;-82
2021/08/15 03:46:03;;;;;;;7.18;4.85;;;;;;;;;;5036352;28;20816;-82
2021/08/15 03:48:29;;;;;;;7.25;5.20;;;19.20;99.90;;;;;;5043503;28;20056;-83
2021/08/15 03:50:55;;;;;;;9.68;5.07;;;;;;;;;;5041948;28;20037;-84
2021/08/15 03:53:21;;;;;;;7.68;5.20;;;19.20;99.90;;;;;;5051743;28;20024;-84
2021/08/15 03:55:47;;;;;;;9.23;4.97;;;;;;;;;;5046186;28;20037;-83
2021/08/15 03:58:12;;;;;;;9.05;5.22;;;19.10;99.90;;;;;;5052628;28;20386;-83
2021/08/15 04:00:41;;;;;;;11.82;5.53;;;19.10;99.90;;;;;;5044322;28;20034;-82
2021/08/15 04:03:11;;;;;;;7.47;4.38;;;19.00;99.90;;;;;;5042348;28;20092;-80
2021/08/15 04:05:37;;;;;;;10.10;5.07;;;19.00;99.90;;;;;;5042135;28;20475;-82
2021/08/15 04:08:05;;;;;;;7.47;5.20;;;21.00;99.90;;;;;;5041641;28;20479;-83
2021/08/15 04:10:31;;;;;;;8.90;4.93;;;;;;;;;;5041189;28;20037;-83
2021/08/15 04:12:57;;;;;;;8.93;4.82;;;;;;;;;;5056560;28;20021;-83
2021/08/15 04:15:23;;;;;;;8.13;4.93;;;;;;;;;;5050938;28;20710;-81
2021/08/15 04:17:49;;;;;;;8.00;4.72;;;18.90;99.90;;;;;;5042731;28;20068;-83
2021/08/15 04:20:15;;;;;;;7.68;5.10;;;;;;;;;;5049697;28;20072;-85
2021/08/15 04:22:41;;;;;;;9.88;5.07;;;;;;;;;;5042009;28;20036;-83
2021/08/15 04:25:10;;;;;;;9.02;4.60;;;18.90;99.90;;;;;;5029943;28;20060;-83
2021/08/15 04:27:36;;;;;;;7.60;4.88;;;18.80;99.90;;;;;;5033851;28;20033;-81
2021/08/15 04:30:02;;;;;;;6.53;4.75;;;18.80;99.90;;;;;;5044394;28;20032;-84
2021/08/15 04:32:28;;;;;;;6.88;4.85;;;;;;;;;;5031976;28;20091;-81
2021/08/15 04:34:54;;;;;;;6.32;4.43;;;;;;;;;;5042344;28;20061;-83
2021/08/15 04:37:20;;;;;;;8.68;4.60;;;18.70;99.90;;;;;;5042710;28;20026;-83
2021/08/15 04:39:46;;;;;;;10.57;5.03;;;18.70;99.90;;;;;;5042291;28;20117;-83
2021/08/15 04:42:11;;;;;;;10.75;4.63;;;21.20;99.90;;;;;;5041434;28;20093;-83
2021/08/15 04:44:38;;;;;;;8.77;4.75;;;18.70;99.90;;;;;;5040911;28;20035;-82
2021/08/15 04:47:04;;;;;;;8.45;4.55;;;19.40;99.90;;;;;;5043555;28;20063;-85
2021/08/15 04:49:30;;;;;;;10.27;5.13;;;18.60;99.90;;;;;;5048275;28;20029;-84
2021/08/15 04:51:55;;;;;;;9.77;4.82;;;18.70;99.90;;;;;;5044752;28;20040;-82
2021/08/15 04:54:28;;;;;;;7.57;4.40;;;20.10;99.90;;;;;;5042269;28;20033;-82
2021/08/15 04:56:54;;;;;;;6.90;4.30;;;;;;;;;;5039675;28;20032;-85
2021/08/15 04:59:20;;;;;;;9.45;3.88;;;;;;;;;;5042042;28;20025;-83
2021/08/15 05:01:46;;;;;;;8.43;4.65;;;;;;;;;;5043451;28;20446;-83
2021/08/15 05:04:12;;;;;;;7.60;4.35;;;;;;;;;;5045955;28;20056;-83
2021/08/15 05:06:38;;;;;;;9.70;4.20;;;;;;;;;;5046742;28;20025;-82
2021/08/15 05:09:04;;;;;;;7.13;4.22;;;18.70;99.90;;;;;;5042105;28;20042;-82
2021/08/15 05:11:30;;;;;;;6.95;4.00;;;;;;;;;;5044751;28;20025;-84
2021/08/15 05:13:56;;;;;;;6.93;4.30;;;18.70;99.90;;;;;;5045303;28;20052;-85
2021/08/15 05:16:23;;;;;;;7.32;4.25;;;18.70;99.90;;;;;;5040643;28;20028;-80
2021/08/15 05:18:49;;;;;;;8.13;4.57;;;18.80;99.90;;;;;;5044654;28;20026;-83
2021/08/15 05:21:17;;;;;;;9.63;4.43;;;18.90;99.90;;;;;;5037858;28;20036;-83
2021/08/15 05:23:44;;;;;;;8.30;4.90;;;18.90;99.90;;;;;;5042300;28;20029;-83
2021/08/15 05:26:10;;;;;;;6.85;4.60;;;;;;;;;;5037862;28;20053;-83
2021/08/15 05:28:36;;;;;;;11.35;4.50;;;;;;;;;;5039211;28;20030;-84
2021/08/15 05:31:02;;;;;;;8.20;4.47;;;19.20;99.90;;;;;;5041942;28;20093;-83
2021/08/15 05:33:28;;;;;;;9.23;4.47;;;;;;;;;;5040981;28;20045;-82
2021/08/15 05:35:54;;;;;;;7.75;4.32;;;;;;;;;;5046854;28;20036;-84
2021/08/15 05:38:20;;;;;;;7.85;4.03;;;;;;;;;;5039825;28;20029;-79
2021/08/15 05:40:46;;;;;;;6.00;3.80;;;;;;;;;;5047506;28;20433;-82
2021/08/15 05:43:12;;;;;;;7.00;4.32;;;19.30;99.90;;;;;;5048150;28;20117;-84
2021/08/15 05:45:37;;;;;;;9.63;4.32;;;19.30;99.90;;;;;;5040871;28;20029;-81
2021/08/15 05:48:07;;;;;;;10.73;4.03;;;16.00;99.90;;;;;;5026289;28;20534;-80
2021/08/15 05:50:33;;;;;;;11.77;4.97;;;19.40;99.90;;;;;;5032500;28;20034;-84
2021/08/15 05:52:58;;;;;;;8.40;4.28;;;19.40;99.90;;;;;;5042990;28;20122;-82
2021/08/15 05:55:24;;;;;;;11.23;4.50;;;19.50;99.90;;;;;;5047093;28;20029;-83
2021/08/15 05:57:50;;;;;;;8.32;4.30;;;19.80;99.90;;;;;;5040527;28;20135;-81
2021/08/15 06:00:16;;;;;;;7.30;4.00;;;19.80;99.90;;;;;;5040100;28;20029;-82
2021/08/15 06:02:43;;;;;;;7.25;3.75;;;20.00;99.90;;;;;;5039879;28;20126;-81
2021/08/15 06:05:12;;;;;;;6.75;4.45;;;20.10;99.90;;;;;;5048164;28;20029;-81
2021/08/15 06:07:38;;;;;;;7.38;3.95;;;20.30;99.90;;;;;;5040996;28;20061;-81
2021/08/15 06:10:05;;;;;;;8.35;4.18;;;20.50;99.90;;;;;;5043392;28;20040;-84
2021/08/15 06:12:31;;;;;;;7.50;3.85;;;20.50;99.90;;;;;;5041567;28;20491;-83
2021/08/15 06:14:57;;;;;;;7.97;3.97;;;20.70;99.90;;;;;;5048252;28;20037;-83
2021/08/15 06:17:22;;;;;;;9.55;3.72;;;20.70;99.90;;;;;;5043814;28;20050;-83
2021/08/15 06:19:48;;;;;;;9.55;4.07;;;20.80;99.90;;;;;;5043827;28;20053;-84
2021/08/15 06:22:14;;;;;;;8.05;4.05;;;21.00;99.90;;;;;;5052107;28;20562;-81
2021/08/15 06:24:39;;;;;;;8.48;3.88;;;22.10;99.90;;;;;;5045455;28;20060;-85
2021/08/15 06:27:06;;;;;;;8.65;4.30;;;;;;;;;;5047748;28;20044;-79
2021/08/15 06:29:32;;;;;;;8.55;3.97;;;;;;;;;;5042274;28;20029;-78
2021/08/15 06:31:58;;;;;;;6.72;3.55;;;21.20;99.10;;;;;;5047952;28;20029;-80
2021/08/15 06:34:24;;;;;;;6.85;3.58;;;21.20;99.40;;;;;;5046861;28;20048;-82
2021/08/15 06:36:50;;;;;;;6.80;3.72;;;21.40;98.70;;;;;;5044214;28;20037;-84
2021/08/15 06:39:16;;;;;;;7.45;3.40;;;;;;;;;;5044909;28;20057;-84
2021/08/15 06:41:43;;;;;;;5.38;3.00;;;21.70;99.90;;;;;;5049716;28;20041;-82
2021/08/15 06:44:08;;;;;;;7.55;3.42;;;21.60;97.70;;;;;;5047498;28;20056;-83
2021/08/15 06:46:34;;;;;;;8.05;3.30;;;21.70;98.00;;;;;;5050461;28;20554;-82
2021/08/15 06:49:00;;;;;;;5.57;3.25;;;21.80;97.20;;;;;;5045694;28;20033;-83
2021/08/15 06:51:25;;;;;;;6.35;3.40;;;21.80;97.40;;;;;;5043447;28;20029;-81
2021/08/15 06:53:51;;;;;;;8.25;3.58;;;;;;;;;;5041534;28;20097;-83
2021/08/15 06:56:17;;;;;;;7.25;3.45;;;22.00;97.00;;;;;;5048643;28;20026;-85
2021/08/15 06:58:43;;;;;;;7.38;3.65;;;22.10;96.90;;;;;;5041627;28;20450;-82
2021/08/15 07:01:09;;;;;;;8.32;3.58;;;;;;;;;;5042382;28;20048;-82
2021/08/15 07:03:34;;;;;;;7.00;3.40;;;22.40;95.90;;;;;;5057863;28;20034;-82
2021/08/15 07:06:00;;;;;;;6.45;3.60;;;22.50;95.50;;;;;;5043734;28;20022;-81
2021/08/15 07:08:26;;;;;;;8.30;3.55;;;22.50;95.70;;;;;;5038008;28;20025;-81
2021/08/15 07:10:52;;;;;;;8.70;3.53;;;;;;;;;;5042520;28;20024;-82
2021/08/15 07:13:22;;;;;;;7.35;3.22;;;22.60;95.60;;;;;;5052168;28;20025;-84
2021/08/15 07:15:52;;;;;;;6.20;3.17;;;;;;;;;;5039131;28;20099;-83
2021/08/15 07:18:18;;;;;;;7.93;3.35;;;;;;;;;;5052454;28;20319;-81
2021/08/15 07:20:45;;;;;;;7.75;3.15;;;22.90;94.70;;;;;;5045238;28;20064;-83
2021/08/15 07:23:11;;;;;;;8.25;3.83;;;22.90;94.90;;;;;;5044090;28;20555;-80
2021/08/15 07:25:37;;;;;;;8.35;3.40;;;23.10;94.00;;;;;;5049022;28;20030;-83
2021/08/15 07:28:03;;;;;;;7.13;3.40;;;23.10;93.70;;;;;;5043073;28;20056;-81
2021/08/15 07:30:30;;;;;;;7.30;3.05;;;;;;;;;;5046581;28;20017;-83
2021/08/15 07:32:57;;;;;;;6.13;3.40;;;;;;;;;;5043432;28;20046;-84
2021/08/15 07:35:24;;;;;;;7.25;2.75;;;;;;;;;;5059329;28;20063;-80
2021/08/15 07:37:50;;;;;;;8.30;3.30;;;;;;;;;;5044836;28;20036;-82
2021/08/15 07:40:17;;;;;;;7.55;2.95;;;;;;;;;;5056137;28;20047;-82
2021/08/15 07:42:50;;;;;;;6.93;3.10;;;;;;;;;;5045154;28;20442;-81
2021/08/15 07:45:16;;;;;;;5.18;3.00;;;;;;;;;;5039532;28;20498;-83
2021/08/15 07:47:42;;;;;;;7.53;3.25;;;;;;;;;;5050100;28;20446;-82
2021/08/15 07:50:09;;;;;;;6.85;2.85;;;19.90;91.70;;;;;;5044099;28;20052;-82
2021/08/15 07:52:35;;;;;;;6.20;2.72;;;;;;;;;;5049165;28;20029;-81
2021/08/15 07:55:01;;;;;;;4.15;2.35;;;24.10;92.40;;;;;;5052257;28;20025;-84
2021/08/15 07:57:27;;;;;;;6.63;2.95;;;;;;;;;;5049572;28;20026;-82
2021/08/15 07:59:54;;;;;;;5.35;2.47;;;;;;;;;;5046619;28;20056;-81
2021/08/15 08:02:21;;;;;;;5.38;2.60;;;;;;;;;;5039541;28;20053;-81
2021/08/15 08:04:49;;;;;;;5.68;2.67;;;;;;;;;;5044189;28;20029;-83
2021/08/15 08:07:18;;;;;;;4.55;2.65;;;;;;;;;;5053701;28;20511;-83
2021/08/15 08:09:44;;;;;;;5.80;3.00;;;;;;;;;;5039588;28;20384;-82
2021/08/15 08:12:10;;;;;;;5.75;2.35;;;24.70;91.00;;;;;;5041181;28;20036;-84
2021/08/15 08:14:36;;;;;;;4.68;2.40;;;24.70;91.20;;;;;;5043535;28;20033;-81
2021/08/15 08:17:02;;;;;;;5.70;2.20;;;;;;;;;;5043629;28;20047;-82
2021/08/15 08:19:28;;;;;;;5.25;2.40;;;;;;;;;;5036841;28;20073;-85
2021/08/15 08:21:53;;;;;;;4.95;2.28;;;25.30;89.50;;;;;;5043921;28;20045;-83
2021/08/15 08:24:19;;;;;;;5.13;2.40;;;25.30;90.00;;;;;;5047311;28;20030;-83
2021/08/15 08:26:45;;;;;;;4.97;2.83;;;25.30;89.30;;;;;;5040591;28;20037;-84
2021/08/15 08:29:10;;;;;;;6.20;2.47;;;25.40;96.30;;;;;;5049199;28;20029;-84
2021/08/15 08:31:36;;;;;;;4.05;2.40;;;25.60;87.50;;;;;;5045427;28;20025;-85
2021/08/15 08:34:02;;;;;;;7.07;2.35;;;;;;;;;;5042185;28;20467;-82
2021/08/15 08:36:27;;;;;;;4.82;2.50;;;25.80;86.00;;;;;;5043198;28;20029;-82
2021/08/15 08:38:53;;;;;;;4.35;2.15;;;26.10;87.20;;;;;;5042437;28;20100;-81
2021/08/15 08:41:20;;;;;;;4.05;1.95;;;;;;;;;;5041798;28;20025;-85
2021/08/15 08:43:47;;;;;;;4.70;2.25;;;;;;;;;;5043558;28;20566;-84
2021/08/15 08:46:13;;;;;;;4.22;2.22;;;;;;;;;;5030687;28;20029;-85
2021/08/15 08:48:40;;;;;;;4.60;1.83;;;;;;;;;;5047230;28;20029;-83
2021/08/15 08:51:06;;;;;;;6.20;2.17;;;26.00;84.90;;;;;;5054090;28;20101;-84
2021/08/15 08:53:36;;;;;;;6.25;2.45;;;26.00;85.10;;;;;;5033315;28;20452;-80
2021/08/15 08:56:02;;;;;;;4.30;1.95;;;26.20;84.30;;;;;;5047858;28;20028;-84
2021/08/15 08:58:28;;;;;;;5.22;2.00;;;26.30;94.70;;;;;;5036242;28;20063;-83
2021/08/15 09:00:54;;;;;;;5.47;1.90;;;26.40;81.90;;;;;;5029592;28;20492;-82
2021/08/15 09:03:19;;;;;;;3.50;1.83;;;26.50;95.40;;;;;;5032384;28;20025;-82
2021/08/15 09:05:53;;;;;;;4.80;2.25;;;26.40;82.40;;;;;;5027965;28;20034;-83
2021/08/15 09:08:32;;;;;;;4.15;2.00;;;26.50;82.50;;;;;;5029394;28;20049;-81
2021/08/15 09:11:19;;;;;;;3.83;1.77;;;26.40;81.10;;;;;;5030518;28;20130;-83
2021/08/15 09:14:18;;;;;;;5.60;2.20;;;26.60;81.10;;;;;;5052450;28;20503;-83
2021/08/15 09:17:01;;;;;;;6.28;2.85;;;26.80;81.30;;;;;;5027852;28;20482;-79
2021/08/15 09:19:34;;;;;;;4.30;2.63;;;26.50;80.70;;;;;;5041954;28;20033;-79
2021/08/15 09:22:10;;;;;;;5.15;2.53;;;;;;;;;;5027550;28;20391;-81
2021/08/15 09:25:03;;;;;;;6.40;3.00;;;27.10;79.50;;;;;;5037943;28;20387;-82
2021/08/15 09:27:36;;;;;;;3.28;1.88;;;27.10;80.10;;;;;;5033467;28;20018;-81
2021/08/15 09:30:05;;;;;;;4.80;2.28;;;27.30;79.70;;;;;;5036833;28;20028;-79
2021/08/15 09:32:31;;;;;;;6.20;2.15;;;27.40;79.50;;;;;;5036789;28;20046;-81
2021/08/15 09:34:58;;;;;;;4.15;1.80;;;27.30;87.90;;;;;;5037336;28;20542;-81
2021/08/15 09:37:28;;;;;;;4.47;2.10;;;27.70;77.70;;;;;;5050001;28;20029;-81
2021/08/15 09:39:54;;;;;;;3.42;1.80;;;27.70;76.70;;;;;;5035133;28;20034;-78
2021/08/15 09:42:42;;;;;;;4.90;2.15;;;27.70;77.40;;;;;;5046767;28;20036;-80
2021/08/15 09:45:16;;;;;;;4.22;1.92;;;27.80;78.60;;;;;;5033885;28;20021;-79
2021/08/15 09:47:43;;;;;;;3.13;1.70;;;27.80;76.90;;;;;;5048779;28;20040;-80
2021/08/15 09:50:20;;;;;;;6.00;2.10;;;28.00;83.80;;;;;;5031624;28;20021;-80
2021/08/15 09:52:46;;;;;;;5.15;2.17;;;27.90;76.80;;;;;;5031546;28;20033;-83
2021/08/15 09:55:12;;;;;;;4.25;2.00;;;27.90;75.90;;;;;;5034268;28;20414;-82
2021/08/15 09:57:38;;;;;;;3.72;1.85;;;28.00;86.30;;;;;;5044030;28;20418;-81
2021/08/15 10:00:24;;;;;;;2.90;1.60;;;28.10;75.10;;;;;;5036270;28;20120;-80
2021/08/15 10:02:50;;;;;;;4.40;2.25;;;;;;;;;;5032684;28;20033;-80
2021/08/15 10:05:16;;;;;;;3.47;2.10;;;28.30;74.10;;;;;;5028858;28;20088;-81
2021/08/15 10:07:43;;;;;;;4.25;2.03;;;28.30;74.30;;;;;;5032384;28;20018;-80
2021/08/15 10:10:13;;;;;;;4.60;2.00;;;28.30;74.60;;;;;;5046781;28;20036;-78
2021/08/15 10:12:38;;;;;;;3.58;1.95;;;28.40;73.70;;;;;;5044292;28;20033;-80
2021/08/15 10:15:10;;;;;;;5.70;2.10;;;28.40;71.90;;;;;;5034214;28;20057;-81
2021/08/15 10:17:38;;;;;;;3.83;1.70;;;28.40;71.50;;;;;;5034413;28;20033;-82
2021/08/15 10:20:08;;;;;;;5.35;3.15;;;28.60;71.20;;;;;;5046623;28;20033;-81
2021/08/15 10:22:37;;;;;;;5.68;2.00;;;28.70;71.20;;;;;;5034550;28;20498;-79
2021/08/15 10:25:07;;;;;;;6.63;1.90;;;28.90;70.30;;;;;;5027318;28;20037;-79
2021/08/15 10:27:42;;;;;;;4.30;2.38;;;28.90;70.40;;;;;;5044092;28;20021;-81
2021/08/15 10:30:14;;;;;;;4.13;1.67;;;29.00;71.20;;;;;;5028905;28;20569;-79
2021/08/15 10:32:55;;;;;;;3.35;1.77;;;29.10;71.20;;;;;;5022247;28;20029;-82
2021/08/15 10:35:38;;;;;;;3.78;1.70;;;29.20;69.40;;;;;;5029933;28;20034;-81
2021/08/15 10:38:16;;;;;;;4.45;1.88;;;29.30;70.60;;;;;;5029024;28;20450;-82
2021/08/15 10:40:41;;;;;;;2.78;1.42;;;29.40;67.80;;;;;;5049623;28;20483;-81
2021/08/15 10:43:23;;;;;;;2.80;1.40;;;29.10;64.60;;;;;;5028065;28;20044;-81
2021/08/15 10:46:22;;;;;;;3.05;1.75;;;29.20;66.40;;;;;;5024947;28;20556;-80
2021/08/15 10:48:59;;;;;;;3.95;2.03;;;29.30;67.80;;;;;;5023444;28;20037;-80
2021/08/15 10:51:38;;;;;;;2.97;1.50;;;29.30;68.20;;;;;;5026968;28;20322;-79
2021/08/15 10:54:04;;;;;;;3.33;1.88;;;29.30;66.30;;;;;;5036584;28;20033;-78
2021/08/15 10:56:54;;;;;;;4.85;2.35;;;29.40;66.80;;;;;;5033258;28;20029;-80
2021/08/15 10:59:49;;;;;;;3.47;1.73;;;29.50;66.30;;;;;;5024977;28;20097;-81
2021/08/15 11:02:17;;;;;;;3.08;1.88;;;29.60;65.20;;;;;;5014285;28;20030;-80
2021/08/15 11:04:57;;;;;;;2.92;1.77;;;29.60;65.60;;;;;;5031651;28;20025;-82
2021/08/15 11:07:40;;;;;;;6.30;2.78;;;29.70;65.70;;;;;;5029764;28;20033;-81
2021/08/15 11:10:12;;;;;;;3.35;1.90;;;29.70;64.50;;;;;;5026219;28;20063;-83
2021/08/15 11:13:13;;;;;;;2.55;1.40;;;29.90;65.10;;;;;;5038657;28;20040;-80
2021/08/15 11:15:39;;;;;;;4.93;2.00;;;29.90;65.10;;;;;;5055154;28;20037;-81
2021/08/15 11:18:10;;;;;;;3.05;1.80;;;29.80;66.00;;;;;;5034886;28;20065;-79
2021/08/15 11:20:45;;;;;;;3.47;2.10;;;29.90;65.00;;;;;;5026368;28;20038;-81
2021/08/15 11:23:19;;;;;;;4.47;1.90;;;29.90;65.20;;;;;;5030299;28;20057;-79
2021/08/15 11:25:46;;;;;;;4.68;1.90;;;30.10;65.60;;;;;;5037998;28;20056;-79
2021/08/15 11:28:13;;;;;;;3.22;1.90;;;30.30;64.80;;;;;;5042307;28;20021;-79
2021/08/15 11:30:39;;;;;;;4.50;1.90;;;30.00;65.00;;;;;;5035938;28;20499;-79
2021/08/15 11:33:08;;;;;;;3.50;2.08;;;30.00;65.10;;;;;;5031514;28;20038;-81
2021/08/15 11:35:36;;;;;;;3.15;2.00;;;30.10;64.50;;;;;;5037504;28;20030;-80
2021/08/15 11:38:03;;;;;;;4.53;2.17;;;30.20;64.80;;;;;;5047357;28;20060;-80
2021/08/15 11:40:31;;;;;;;4.03;2.42;;;30.40;65.60;;;;;;5039664;28;20033;-79
2021/08/15 11:43:00;;;;;;;3.33;2.10;;;30.50;64.60;;;;;;5039312;28;20029;-81
2021/08/15 11:45:33;;;;;;;3.88;2.15;;;30.10;64.70;;;;;;5037843;28;20288;-79
2021/08/15 11:48:12;;;;;;;3.78;2.35;;;30.30;65.40;;;;;;5038753;28;20044;-80
2021/08/15 11:50:40;;;;;;;4.22;2.50;;;30.50;64.50;;;;;;5040102;28;20053;-81
2021/08/15 11:53:17;;;;;;;3.47;2.20;;;30.50;64.10;;;;;;5045934;28;20140;-81
2021/08/15 11:55:42;;;;;;;5.70;2.55;;;30.50;64.70;;;;;;5041928;28;20097;-81
2021/08/15 11:58:11;;;;;;;3.83;2.50;;;30.10;65.10;;;;;;5043081;28;20093;-80
2021/08/15 12:00:37;;;;;;;4.90;2.70;;;30.00;65.70;;;;;;5050277;28;20115;-80
2021/08/15 12:03:09;;;;;;;4.55;2.50;;;30.00;66.00;;;;;;5035041;28;20171;-81
2021/08/15 12:06:15;;;;;;;6.88;3.95;;;30.20;65.10;;;;;;5043525;28;20033;-80
2021/08/15 12:08:43;;;;;;;3.50;2.33;;;30.20;65.30;;;;;;5039465;28;20060;-82
2021/08/15 12:11:26;;;;;;;4.68;2.38;;;30.40;65.20;;;;;;5041476;28;20040;-80
2021/08/15 12:13:53;;;;;;;5.07;2.47;;;30.40;64.90;;;;;;5036584;28;20113;-79
2021/08/15 12:16:24;;;;;;;3.88;2.47;;;30.20;65.10;;;;;;5053668;28;20022;-79
2021/08/15 12:18:53;;;;;;;4.75;2.90;;;30.60;65.00;;;;;;5037848;28;20085;-82
2021/08/15 12:21:21;;;;;;;5.13;3.15;;;30.60;65.50;;;;;;5036974;28;20032;-79
2021/08/15 12:24:02;;;;;;;4.83;2.40;;;30.50;64.90;;;;;;5054125;28;20018;-81
2021/08/15 12:26:37;;;;;;;4.00;2.60;;;30.70;64.30;;;;;;5050318;28;20556;-81
2021/08/15 12:29:06;;;;;;;3.25;2.20;;;30.60;64.70;;;;;;5040387;28;20251;-80
2021/08/15 12:31:34;;;;;;;5.53;3.28;;;30.70;65.20;;;;;;5033292;28;20025;-81
2021/08/15 12:34:17;;;;;;;4.55;2.80;;;30.80;65.50;;;;;;5039683;28;20064;-80
2021/08/15 12:36:52;;;;;;;3.60;2.25;;;31.00;65.30;;;;;;5041113;28;20062;-79
2021/08/15 12:39:29;;;;;;;5.60;3.42;;;31.10;65.20;;;;;;5036198;28;20047;-79
2021/08/15 12:41:56;;;;;;;6.20;2.80;;;31.30;64.90;;;;;;5031105;28;20029;-80
2021/08/15 12:44:44;;;;;;;4.68;2.67;;;31.30;64.00;;;;;;5025312;28;20499;-79
2021/08/15 12:47:10;;;;;;;5.20;2.90;;;31.20;63.60;;;;;;5044441;28;20495;-78
2021/08/15 12:49:43;;;;;;;5.97;3.65;;;31.00;63.70;;;;;;5024062;28;20038;-79
2021/08/15 12:52:22;;;;;;;5.40;2.90;;;30.90;64.10;;;;;;5033083;28;20036;-81
2021/08/15 12:55:17;;;;;;;3.87;2.37;;;30.80;64.00;;;;;;5027192;28;20095;-79
2021/08/15 12:57:58;;;;;;;4.95;3.25;;;30.80;64.40;;;;;;5046997;28;20299;-78
2021/08/15 13:00:26;;;;;;;5.13;3.22;;;31.50;65.30;;;;;;5049021;28;20034;-78
2021/08/15 13:02:53;;;;;;;3.95;2.55;;;31.00;64.80;;;;;;5042238;28;20030;-80
2021/08/15 13:05:21;;;;;;;6.72;3.25;;;31.00;64.40;;;;;;5032538;28;20025;-81
2021/08/15 13:07:47;;;;;;;5.80;3.28;;;30.90;64.80;;;;;;5033273;28;20025;-79
2021/08/15 13:10:14;;;;;;;5.28;3.10;;;31.10;64.50;;;;;;5026885;28;20036;-78
2021/08/15 13:12:40;;;;;;;5.13;3.13;;;31.40;64.10;;;;;;5026730;28;20088;-78
2021/08/15 13:15:07;;;;;;;6.22;3.65;;;31.40;64.70;;;;;;5035139;28;20014;-79
2021/08/15 13:17:33;;;;;;;6.18;3.92;;;31.40;64.40;;;;;;5037857;28;20038;-79